LKTB/BRQ METAR and TAF weather

Enter ICAO airport designator
Station Type Date Time Source
LKTB METAR 2020/09/20 11:30 UTC NOAA

LKTB 201130Z 09008KT CAVOK 21/08 Q1018 NOSIG


Station Type Date Time Source
LKTB Decoded METAR 2020/09/20 11:30 UTC NOAA

Brno / Turany, Czech Republic (LKTB) 49-09N 016-42E 246M
Sep 20, 2020 - 07:30 AM EDT / 2020.09.20 1130 UTC
Wind: from the E (090 degrees) at 9 MPH (8 KT):0
Visibility: greater than 7 mile(s):0
Temperature: 69 F (21 C)
Dew Point: 46 F (8 C)
Relative Humidity: 43%
Pressure (altimeter): 30.06 in. Hg (1018 hPa)
ob: LKTB 201130Z 09008KT CAVOK 21/08 Q1018 NOSIG
cycle: 11

Station Type Date Time Source
LKTB TAF 2020/09/20 12:21 UTC NOAA

TAF LKTB 201100Z 2012/2118 12010KT CAVOK
BECMG 2016/2018 07006KT
BECMG 2107/2109 14012KT

Example: see airport list